sensor_id;sensor_type;location;lat;lon;timestamp;pressure;altitude;pressure_sealevel;temperature;humidity
67517;BME280;54359;59.124;37.910;2023-01-30T00:01:53;98348.88;;;-2.88;86.11
67517;BME280;54359;59.124;37.910;2023-01-30T00:04:19;98370.97;;;-2.79;85.72
67517;BME280;54359;59.124;37.910;2023-01-30T00:06:44;98352.41;;;-2.83;86.02
67517;BME280;54359;59.124;37.910;2023-01-30T00:09:15;98349.31;;;-2.76;85.47
67517;BME280;54359;59.124;37.910;2023-01-30T00:11:42;98361.19;;;-2.72;86.57
67517;BME280;54359;59.124;37.910;2023-01-30T00:14:09;98357.84;;;-2.72;85.86
67517;BME280;54359;59.124;37.910;2023-01-30T00:16:35;98346.03;;;-2.73;85.69
67517;BME280;54359;59.124;37.910;2023-01-30T00:19:01;98343.50;;;-2.75;86.57
67517;BME280;54359;59.124;37.910;2023-01-30T00:21:26;98341.78;;;-2.76;85.95
67517;BME280;54359;59.124;37.910;2023-01-30T00:23:52;98332.63;;;-2.74;86.42
67517;BME280;54359;59.124;37.910;2023-01-30T00:26:19;98333.47;;;-2.73;85.34
67517;BME280;54359;59.124;37.910;2023-01-30T00:28:45;98322.56;;;-2.74;86.11
67517;BME280;54359;59.124;37.910;2023-01-30T00:31:11;98323.41;;;-2.73;85.68
67517;BME280;54359;59.124;37.910;2023-01-30T00:33:37;98310.84;;;-2.73;86.52
67517;BME280;54359;59.124;37.910;2023-01-30T00:36:04;98299.78;;;-2.78;85.94
67517;BME280;54359;59.124;37.910;2023-01-30T00:38:31;98299.88;;;-2.75;85.85
67517;BME280;54359;59.124;37.910;2023-01-30T00:40:59;98304.34;;;-2.68;86.02
67517;BME280;54359;59.124;37.910;2023-01-30T00:43:25;98295.06;;;-2.69;86.22
67517;BME280;54359;59.124;37.910;2023-01-30T00:46:27;98290.91;;;-2.69;86.76
67517;BME280;54359;59.124;37.910;2023-01-30T00:49:13;98294.34;;;-2.67;86.92
67517;BME280;54359;59.124;37.910;2023-01-30T00:51:39;98288.28;;;-2.72;86.19
67517;BME280;54359;59.124;37.910;2023-01-30T00:54:06;98274.91;;;-2.71;86.41
67517;BME280;54359;59.124;37.910;2023-01-30T00:56:32;98286.81;;;-2.65;86.43
67517;BME280;54359;59.124;37.910;2023-01-30T00:58:58;98284.22;;;-2.68;86.40
67517;BME280;54359;59.124;37.910;2023-01-30T01:01:25;98271.66;;;-2.68;85.95
67517;BME280;54359;59.124;37.910;2023-01-30T01:03:50;98278.34;;;-2.69;85.81
67517;BME280;54359;59.124;37.910;2023-01-30T01:06:18;98279.97;;;-2.69;85.49
67517;BME280;54359;59.124;37.910;2023-01-30T01:08:45;98275.41;;;-2.79;86.17
67517;BME280;54359;59.124;37.910;2023-01-30T01:11:11;98271.50;;;-2.73;85.41
67517;BME280;54359;59.124;37.910;2023-01-30T01:13:54;98269.75;;;-2.74;85.83
67517;BME280;54359;59.124;37.910;2023-01-30T01:16:23;98272.50;;;-2.68;85.94
67517;BME280;54359;59.124;37.910;2023-01-30T01:18:49;98278.44;;;-2.66;86.27
67517;BME280;54359;59.124;37.910;2023-01-30T01:21:17;98264.72;;;-2.74;86.05
67517;BME280;54359;59.124;37.910;2023-01-30T01:23:49;98279.34;;;-2.64;86.00
67517;BME280;54359;59.124;37.910;2023-01-30T01:26:14;98273.47;;;-2.64;85.40
67517;BME280;54359;59.124;37.910;2023-01-30T01:28:42;98254.75;;;-2.72;85.73
67517;BME280;54359;59.124;37.910;2023-01-30T01:31:11;98260.81;;;-2.66;86.20
67517;BME280;54359;59.124;37.910;2023-01-30T01:33:37;98259.91;;;-2.68;85.51
67517;BME280;54359;59.124;37.910;2023-01-30T01:36:03;98248.19;;;-2.67;85.76
67517;BME280;54359;59.124;37.910;2023-01-30T01:38:34;98228.03;;;-2.69;85.73
67517;BME280;54359;59.124;37.910;2023-01-30T01:41:00;98233.09;;;-2.67;86.46
67517;BME280;54359;59.124;37.910;2023-01-30T01:44:29;98228.06;;;-2.67;86.49
67517;BME280;54359;59.124;37.910;2023-01-30T01:46:25;98228.94;;;-2.67;85.94
67517;BME280;54359;59.124;37.910;2023-01-30T01:48:55;98223.94;;;-2.67;86.17
67517;BME280;54359;59.124;37.910;2023-01-30T01:51:30;98231.41;;;-2.68;86.02
67517;BME280;54359;59.124;37.910;2023-01-30T01:54:26;98237.44;;;-2.63;85.83
67517;BME280;54359;59.124;37.910;2023-01-30T01:56:54;98227.22;;;-2.68;85.19
67517;BME280;54359;59.124;37.910;2023-01-30T01:59:44;98222.31;;;-2.65;86.16
67517;BME280;54359;59.124;37.910;2023-01-30T02:02:12;98226.44;;;-2.67;85.89
67517;BME280;54359;59.124;37.910;2023-01-30T02:04:41;98221.41;;;-2.67;86.07
67517;BME280;54359;59.124;37.910;2023-01-30T02:07:35;98216.16;;;-2.73;86.10
67517;BME280;54359;59.124;37.910;2023-01-30T02:10:06;98216.41;;;-2.65;86.15
67517;BME280;54359;59.124;37.910;2023-01-30T02:12:32;98210.38;;;-2.70;86.57
67517;BME280;54359;59.124;37.910;2023-01-30T02:14:59;98211.38;;;-2.65;86.58
67517;BME280;54359;59.124;37.910;2023-01-30T02:17:26;98194.53;;;-2.68;85.64
67517;BME280;54359;59.124;37.910;2023-01-30T02:20:23;98190.25;;;-2.70;86.29
67517;BME280;54359;59.124;37.910;2023-01-30T02:28:35;98170.78;;;-2.76;86.38
67517;BME280;54359;59.124;37.910;2023-01-30T02:31:25;98182.66;;;-2.72;86.45
67517;BME280;54359;59.124;37.910;2023-01-30T02:34:14;98183.47;;;-2.73;86.29
67517;BME280;54359;59.124;37.910;2023-01-30T02:37:38;98173.38;;;-2.74;85.38
67517;BME280;54359;59.124;37.910;2023-01-30T02:40:29;98163.31;;;-2.74;86.75
67517;BME280;54359;59.124;37.910;2023-01-30T02:43:14;98157.47;;;-2.73;85.34
67517;BME280;54359;59.124;37.910;2023-01-30T02:51:10;98136.72;;;-2.92;85.88
67517;BME280;54359;59.124;37.910;2023-01-30T02:53:40;98132.72;;;-2.87;86.50
67517;BME280;54359;59.124;37.910;2023-01-30T02:56:06;98125.19;;;-2.87;86.14
67517;BME280;54359;59.124;37.910;2023-01-30T02:58:43;98109.97;;;-2.91;85.84
67517;BME280;54359;59.124;37.910;2023-01-30T03:03:59;98102.56;;;-2.87;86.00
67517;BME280;54359;59.124;37.910;2023-01-30T03:13:01;98090.00;;;-2.87;86.46
67517;BME280;54359;59.124;37.910;2023-01-30T03:15:34;98088.38;;;-2.85;86.75
67517;BME280;54359;59.124;37.910;2023-01-30T03:18:03;98080.84;;;-2.85;86.20
67517;BME280;54359;59.124;37.910;2023-01-30T03:20:29;98085.09;;;-2.82;86.76
67517;BME280;54359;59.124;37.910;2023-01-30T03:22:56;98062.47;;;-2.82;86.47
67517;BME280;54359;59.124;37.910;2023-01-30T03:25:24;98062.53;;;-2.80;86.66
67517;BME280;54359;59.124;37.910;2023-01-30T03:27:54;98044.16;;;-2.78;85.91
67517;BME280;54359;59.124;37.910;2023-01-30T03:30:22;98045.84;;;-2.78;86.32
67517;BME280;54359;59.124;37.910;2023-01-30T03:32:50;98042.56;;;-2.76;85.83
67517;BME280;54359;59.124;37.910;2023-01-30T03:35:17;98043.47;;;-2.74;85.97
67517;BME280;54359;59.124;37.910;2023-01-30T03:37:44;98026.56;;;-2.78;86.16
67517;BME280;54359;59.124;37.910;2023-01-30T03:40:12;98033.53;;;-2.69;86.35
67517;BME280;54359;59.124;37.910;2023-01-30T03:42:39;98019.16;;;-2.73;86.00
67517;BME280;54359;59.124;37.910;2023-01-30T03:45:05;98004.59;;;-2.84;86.32
67517;BME280;54359;59.124;37.910;2023-01-30T03:47:31;98014.91;;;-2.76;86.18
67517;BME280;54359;59.124;37.910;2023-01-30T03:49:59;98013.22;;;-2.75;86.04
67517;BME280;54359;59.124;37.910;2023-01-30T03:52:27;97992.09;;;-2.82;86.12
67517;BME280;54359;59.124;37.910;2023-01-30T03:54:53;97998.16;;;-2.75;86.64
67517;BME280;54359;59.124;37.910;2023-01-30T03:57:21;97977.78;;;-2.85;86.35
67517;BME280;54359;59.124;37.910;2023-01-30T03:59:49;97987.97;;;-2.80;86.35
67517;BME280;54359;59.124;37.910;2023-01-30T04:02:17;97989.00;;;-2.73;85.91
67517;BME280;54359;59.124;37.910;2023-01-30T04:04:48;98000.66;;;-2.75;85.74
67517;BME280;54359;59.124;37.910;2023-01-30T04:07:14;97979.47;;;-2.84;86.61
67517;BME280;54359;59.124;37.910;2023-01-30T04:09:41;97969.28;;;-2.88;86.51
67517;BME280;54359;59.124;37.910;2023-01-30T04:12:09;97961.00;;;-2.84;86.17
67517;BME280;54359;59.124;37.910;2023-01-30T04:14:42;97959.47;;;-2.80;86.31
67517;BME280;54359;59.124;37.910;2023-01-30T04:17:28;97954.28;;;-2.85;86.62
67517;BME280;54359;59.124;37.910;2023-01-30T04:20:09;97930.78;;;-2.87;86.31
67517;BME280;54359;59.124;37.910;2023-01-30T04:22:38;97940.19;;;-2.80;86.12
67517;BME280;54359;59.124;37.910;2023-01-30T04:25:09;97931.09;;;-2.76;86.06
67517;BME280;54359;59.124;37.910;2023-01-30T04:27:36;97915.91;;;-2.79;85.91
67517;BME280;54359;59.124;37.910;2023-01-30T04:30:10;97904.19;;;-2.79;85.85
67517;BME280;54359;59.124;37.910;2023-01-30T04:32:39;97901.31;;;-2.91;86.52
67517;BME280;54359;59.124;37.910;2023-01-30T04:35:05;97904.03;;;-2.84;85.95
67517;BME280;54359;59.124;37.910;2023-01-30T04:37:31;97905.75;;;-2.83;86.58
67517;BME280;54359;59.124;37.910;2023-01-30T04:39:56;97898.22;;;-2.83;86.06
67517;BME280;54359;59.124;37.910;2023-01-30T04:42:26;97871.94;;;-2.92;86.22
67517;BME280;54359;59.124;37.910;2023-01-30T04:45:15;97893.97;;;-2.85;86.64
67517;BME280;54359;59.124;37.910;2023-01-30T04:47:49;97882.06;;;-2.91;87.02
67517;BME280;54359;59.124;37.910;2023-01-30T04:50:19;97878.69;;;-2.91;86.66
67517;BME280;54359;59.124;37.910;2023-01-30T04:52:46;97883.94;;;-2.84;86.78
67517;BME280;54359;59.124;37.910;2023-01-30T04:55:12;97863.50;;;-2.94;86.77
67517;BME280;54359;59.124;37.910;2023-01-30T04:57:40;97853.22;;;-3.04;86.17
67517;BME280;54359;59.124;37.910;2023-01-30T05:00:08;97862.66;;;-2.95;86.48
67517;BME280;54359;59.124;37.910;2023-01-30T05:02:38;97873.81;;;-2.87;86.58
67517;BME280;54359;59.124;37.910;2023-01-30T05:05:05;97877.09;;;-2.88;86.33
67517;BME280;54359;59.124;37.910;2023-01-30T05:07:34;97871.16;;;-2.91;86.07
67517;BME280;54359;59.124;37.910;2023-01-30T05:09:59;97860.03;;;-2.99;87.06
67517;BME280;54359;59.124;37.910;2023-01-30T05:12:28;97872.06;;;-2.89;86.48
67517;BME280;54359;59.124;37.910;2023-01-30T05:14:56;97882.84;;;-2.92;86.08
67517;BME280;54359;59.124;37.910;2023-01-30T05:17:22;97869.31;;;-2.97;86.99
67517;BME280;54359;59.124;37.910;2023-01-30T05:19:48;97871.88;;;-2.95;87.04
67517;BME280;54359;59.124;37.910;2023-01-30T05:22:14;97852.38;;;-3.03;86.30
67517;BME280;54359;59.124;37.910;2023-01-30T05:24:40;97852.50;;;-2.99;86.31
67517;BME280;54359;59.124;37.910;2023-01-30T05:27:05;97850.09;;;-2.95;86.43
67517;BME280;54359;59.124;37.910;2023-01-30T05:29:31;97841.63;;;-2.98;86.51
67517;BME280;54359;59.124;37.910;2023-01-30T05:31:57;97851.94;;;-2.89;87.03
67517;BME280;54359;59.124;37.910;2023-01-30T05:34:24;97832.41;;;-2.98;86.88
67517;BME280;54359;59.124;37.910;2023-01-30T05:36:50;97823.06;;;-3.02;87.15
67517;BME280;54359;59.124;37.910;2023-01-30T05:39:19;97830.66;;;-3.00;86.21
67517;BME280;54359;59.124;37.910;2023-01-30T05:41:45;97831.56;;;-2.98;86.51
67517;BME280;54359;59.124;37.910;2023-01-30T05:44:14;97833.63;;;-2.85;85.86
67517;BME280;54359;59.124;37.910;2023-01-30T05:46:41;97827.72;;;-2.87;86.77
67517;BME280;54359;59.124;37.910;2023-01-30T05:49:07;97826.72;;;-2.92;86.15
67517;BME280;54359;59.124;37.910;2023-01-30T05:51:36;97813.53;;;-2.85;86.71
67517;BME280;54359;59.124;37.910;2023-01-30T05:54:05;97821.13;;;-2.82;86.45
67517;BME280;54359;59.124;37.910;2023-01-30T05:56:33;97787.44;;;-2.89;86.17
67517;BME280;54359;59.124;37.910;2023-01-30T05:59:10;97749.81;;;-3.16;86.38
67517;BME280;54359;59.124;37.910;2023-01-30T06:01:39;97785.94;;;-2.82;87.01
67517;BME280;54359;59.124;37.910;2023-01-30T06:04:06;97797.78;;;-2.78;86.57
67517;BME280;54359;59.124;37.910;2023-01-30T06:06:32;97744.94;;;-3.11;86.87
67517;BME280;54359;59.124;37.910;2023-01-30T06:09:00;97752.84;;;-2.97;86.19
67517;BME280;54359;59.124;37.910;2023-01-30T06:11:29;97765.59;;;-2.90;86.43
67517;BME280;54359;59.124;37.910;2023-01-30T06:13:56;97782.66;;;-2.79;86.42
67517;BME280;54359;59.124;37.910;2023-01-30T06:16:24;97758.06;;;-2.90;86.77
67517;BME280;54359;59.124;37.910;2023-01-30T06:18:50;97781.81;;;-2.80;86.56
67517;BME280;54359;59.124;37.910;2023-01-30T06:21:16;97763.38;;;-2.80;86.41
67517;BME280;54359;59.124;37.910;2023-01-30T06:23:46;97761.69;;;-2.80;86.80
67517;BME280;54359;59.124;37.910;2023-01-30T06:26:16;97748.00;;;-2.90;86.71
67517;BME280;54359;59.124;37.910;2023-01-30T06:28:55;97747.44;;;-2.81;86.23
67517;BME280;54359;59.124;37.910;2023-01-30T06:31:22;97752.63;;;-2.75;86.66
67517;BME280;54359;59.124;37.910;2023-01-30T06:33:48;97762.84;;;-2.69;86.38
67517;BME280;54359;59.124;37.910;2023-01-30T06:36:15;97735.75;;;-2.79;86.70
67517;BME280;54359;59.124;37.910;2023-01-30T06:38:46;97747.88;;;-2.64;85.99
67517;BME280;54359;59.124;37.910;2023-01-30T06:41:14;97706.31;;;-2.83;86.65
67517;BME280;54359;59.124;37.910;2023-01-30T06:43:44;97717.91;;;-2.88;86.07
67517;BME280;54359;59.124;37.910;2023-01-30T06:46:12;97725.78;;;-2.76;86.45
67517;BME280;54359;59.124;37.910;2023-01-30T06:48:40;97701.34;;;-2.80;86.53
67517;BME280;54359;59.124;37.910;2023-01-30T06:51:13;97691.25;;;-2.83;86.21
67517;BME280;54359;59.124;37.910;2023-01-30T06:53:40;97714.19;;;-2.69;85.94
67517;BME280;54359;59.124;37.910;2023-01-30T06:56:11;97676.84;;;-2.89;86.47
67517;BME280;54359;59.124;37.910;2023-01-30T06:58:39;97661.81;;;-2.87;86.25
67517;BME280;54359;59.124;37.910;2023-01-30T07:01:29;97691.72;;;-2.65;86.79
67517;BME280;54359;59.124;37.910;2023-01-30T07:04:00;97660.50;;;-2.71;86.45
67517;BME280;54359;59.124;37.910;2023-01-30T07:06:28;97680.94;;;-2.59;86.07
67517;BME280;54359;59.124;37.910;2023-01-30T07:08:59;97657.25;;;-2.67;86.39
67517;BME280;54359;59.124;37.910;2023-01-30T07:11:27;97667.56;;;-2.58;86.60
67517;BME280;54359;59.124;37.910;2023-01-30T07:13:52;97666.88;;;-2.52;86.70
67517;BME280;54359;59.124;37.910;2023-01-30T07:16:20;97651.63;;;-2.58;86.05
67517;BME280;54359;59.124;37.910;2023-01-30T07:18:57;97648.47;;;-2.50;86.86
67517;BME280;54359;59.124;37.910;2023-01-30T07:21:26;97638.31;;;-2.53;86.54
67517;BME280;54359;59.124;37.910;2023-01-30T07:23:52;97632.53;;;-2.50;86.37
67517;BME280;54359;59.124;37.910;2023-01-30T07:26:22;97625.00;;;-2.49;86.23
67517;BME280;54359;59.124;37.910;2023-01-30T07:28:52;97639.56;;;-2.37;86.61
67517;BME280;54359;59.124;37.910;2023-01-30T07:31:21;97631.22;;;-2.36;86.43
67517;BME280;54359;59.124;37.910;2023-01-30T07:33:49;97643.13;;;-2.27;86.63
67517;BME280;54359;59.124;37.910;2023-01-30T07:36:15;97620.16;;;-2.41;86.49
67517;BME280;54359;59.124;37.910;2023-01-30T07:38:41;97623.63;;;-2.37;85.92
67517;BME280;54359;59.124;37.910;2023-01-30T07:41:07;97628.75;;;-2.33;86.03
67517;BME280;54359;59.124;37.910;2023-01-30T07:43:34;97621.19;;;-2.33;86.52
67517;BME280;54359;59.124;37.910;2023-01-30T07:46:05;97623.94;;;-2.24;86.81
67517;BME280;54359;59.124;37.910;2023-01-30T07:48:31;97622.91;;;-2.32;86.70
67517;BME280;54359;59.124;37.910;2023-01-30T07:50:56;97636.44;;;-2.27;86.18
67517;BME280;54359;59.124;37.910;2023-01-30T07:53:22;97637.38;;;-2.23;85.97
67517;BME280;54359;59.124;37.910;2023-01-30T07:55:48;97629.81;;;-2.23;86.43
67517;BME280;54359;59.124;37.910;2023-01-30T07:58:14;97618.03;;;-2.26;86.08
67517;BME280;54359;59.124;37.910;2023-01-30T08:00:40;97622.91;;;-2.32;86.78
67517;BME280;54359;59.124;37.910;2023-01-30T08:03:11;97603.59;;;-2.33;86.53
67517;BME280;54359;59.124;37.910;2023-01-30T08:05:37;97573.13;;;-2.45;85.81
67517;BME280;54359;59.124;37.910;2023-01-30T08:08:04;97587.81;;;-2.26;86.37
67517;BME280;54359;59.124;37.910;2023-01-30T08:10:31;97584.53;;;-2.23;86.02
67517;BME280;54359;59.124;37.910;2023-01-30T08:12:57;97587.88;;;-2.23;85.91
67517;BME280;54359;59.124;37.910;2023-01-30T08:15:24;97582.00;;;-2.23;86.51
67517;BME280;54359;59.124;37.910;2023-01-30T08:17:55;97565.00;;;-2.33;85.94
67517;BME280;54359;59.124;37.910;2023-01-30T08:20:27;97562.72;;;-2.23;86.55
67517;BME280;54359;59.124;37.910;2023-01-30T08:22:57;97573.81;;;-2.14;86.19
67517;BME280;54359;59.124;37.910;2023-01-30T08:25:24;97561.13;;;-2.19;86.14
67517;BME280;54359;59.124;37.910;2023-01-30T08:27:51;97556.25;;;-2.11;85.98
67517;BME280;54359;59.124;37.910;2023-01-30T08:30:18;97556.25;;;-2.11;86.41
67517;BME280;54359;59.124;37.910;2023-01-30T08:32:44;97542.72;;;-2.16;86.59
67517;BME280;54359;59.124;37.910;2023-01-30T08:35:11;97541.34;;;-2.02;86.00
67517;BME280;54359;59.124;37.910;2023-01-30T08:37:40;97545.56;;;-2.01;85.66
67517;BME280;54359;59.124;37.910;2023-01-30T08:40:07;97520.16;;;-2.13;86.27
67517;BME280;54359;59.124;37.910;2023-01-30T08:42:34;97495.56;;;-2.25;85.84
67517;BME280;54359;59.124;37.910;2023-01-30T08:45:02;97514.78;;;-2.29;85.86
67517;BME280;54359;59.124;37.910;2023-01-30T08:47:30;97518.50;;;-2.11;86.28
67517;BME280;54359;59.124;37.910;2023-01-30T08:50:04;97497.25;;;-2.24;85.71
67517;BME280;54359;59.124;37.910;2023-01-30T08:52:32;97520.41;;;-1.99;86.23
67517;BME280;54359;59.124;37.910;2023-01-30T08:55:03;97511.09;;;-2.04;86.37
67517;BME280;54359;59.124;37.910;2023-01-30T08:57:29;97499.22;;;-2.11;86.24
67517;BME280;54359;59.124;37.910;2023-01-30T08:59:56;97473.09;;;-2.17;86.21
67517;BME280;54359;59.124;37.910;2023-01-30T09:02:23;97446.88;;;-2.27;86.22
67517;BME280;54359;59.124;37.910;2023-01-30T09:04:51;97525.59;;;-1.92;85.96
67517;BME280;54359;59.124;37.910;2023-01-30T09:07:23;97501.28;;;-1.91;86.13
67517;BME280;54359;59.124;37.910;2023-01-30T09:09:50;97429.19;;;-2.32;86.09
67517;BME280;54359;59.124;37.910;2023-01-30T09:12:25;97484.25;;;-2.05;86.08
67517;BME280;54359;59.124;37.910;2023-01-30T09:14:52;97490.25;;;-1.98;86.58
67517;BME280;54359;59.124;37.910;2023-01-30T09:17:23;97450.38;;;-2.20;86.31
67517;BME280;54359;59.124;37.910;2023-01-30T09:19:51;97480.16;;;-1.98;85.98
67517;BME280;54359;59.124;37.910;2023-01-30T09:22:21;97484.56;;;-1.88;86.14
67517;BME280;54359;59.124;37.910;2023-01-30T09:24:48;97478.50;;;-1.97;85.70
67517;BME280;54359;59.124;37.910;2023-01-30T09:27:19;97484.47;;;-1.92;85.93
67517;BME280;54359;59.124;37.910;2023-01-30T09:29:46;97469.31;;;-1.95;86.56
67517;BME280;54359;59.124;37.910;2023-01-30T09:32:12;97442.34;;;-2.03;85.94
67517;BME280;54359;59.124;37.910;2023-01-30T09:34:39;97454.97;;;-2.01;85.62
67517;BME280;54359;59.124;37.910;2023-01-30T09:37:06;97417.78;;;-2.14;86.21
67517;BME280;54359;59.124;37.910;2023-01-30T09:39:34;97433.94;;;-2.03;86.08
67517;BME280;54359;59.124;37.910;2023-01-30T09:48:13;97425.00;;;-1.86;85.77
67517;BME280;54359;59.124;37.910;2023-01-30T09:51:22;97412.47;;;-1.84;86.41
67517;BME280;54359;59.124;37.910;2023-01-30T09:54:18;97389.53;;;-1.99;86.05
67517;BME280;54359;59.124;37.910;2023-01-30T09:57:16;97391.56;;;-1.80;86.13
67517;BME280;54359;59.124;37.910;2023-01-30T10:02:28;97394.09;;;-1.77;86.12
67517;BME280;54359;59.124;37.910;2023-01-30T10:04:56;97368.81;;;-1.85;86.15
67517;BME280;54359;59.124;37.910;2023-01-30T10:24:07;97345.56;;;-1.70;86.06
67517;BME280;54359;59.124;37.910;2023-01-30T10:26:40;97334.66;;;-1.69;86.68
67517;BME280;54359;59.124;37.910;2023-01-30T10:29:25;97325.28;;;-1.77;85.71
67517;BME280;54359;59.124;37.910;2023-01-30T10:34:51;97312.56;;;-1.87;85.88
67517;BME280;54359;59.124;37.910;2023-01-30T10:37:30;97312.66;;;-1.79;86.08
67517;BME280;54359;59.124;37.910;2023-01-30T10:40:27;97329.50;;;-1.76;85.64
67517;BME280;54359;59.124;37.910;2023-01-30T10:43:40;97311.84;;;-1.78;85.65
67517;BME280;54359;59.124;37.910;2023-01-30T10:49:08;97239.09;;;-2.16;86.18
67517;BME280;54359;59.124;37.910;2023-01-30T10:55:47;97287.28;;;-1.93;85.82
67517;BME280;54359;59.124;37.910;2023-01-30T10:58:59;97288.19;;;-1.88;86.07
67517;BME280;54359;59.124;37.910;2023-01-30T11:01:56;97262.78;;;-2.02;85.79
67517;BME280;54359;59.124;37.910;2023-01-30T11:05:15;97274.63;;;-1.96;85.63
67517;BME280;54359;59.124;37.910;2023-01-30T11:07:51;97277.13;;;-1.97;85.65
67517;BME280;54359;59.124;37.910;2023-01-30T11:10:38;97284.69;;;-1.99;85.65
67517;BME280;54359;59.124;37.910;2023-01-30T11:13:20;97251.09;;;-2.01;85.96
67517;BME280;54359;59.124;37.910;2023-01-30T11:16:05;97273.75;;;-2.01;86.22
67517;BME280;54359;59.124;37.910;2023-01-30T11:18:32;97242.44;;;-2.17;85.87
67517;BME280;54359;59.124;37.910;2023-01-30T11:21:07;97259.44;;;-2.02;86.33
67517;BME280;54359;59.124;37.910;2023-01-30T11:23:38;97267.94;;;-1.95;86.05
67517;BME280;54359;59.124;37.910;2023-01-30T11:26:33;97257.91;;;-1.94;86.45
67517;BME280;54359;59.124;37.910;2023-01-30T11:29:27;97258.75;;;-1.92;86.11
67517;BME280;54359;59.124;37.910;2023-01-30T11:32:21;97212.28;;;-2.14;85.55
67517;BME280;54359;59.124;37.910;2023-01-30T11:38:24;97225.13;;;-1.97;86.05
67517;BME280;54359;59.124;37.910;2023-01-30T11:41:22;97215.72;;;-2.09;85.77
67517;BME280;54359;59.124;37.910;2023-01-30T11:44:39;97247.03;;;-1.90;86.11
67517;BME280;54359;59.124;37.910;2023-01-30T11:47:21;97230.94;;;-1.99;85.68
67517;BME280;54359;59.124;37.910;2023-01-30T11:50:23;97237.81;;;-1.91;85.76
67517;BME280;54359;59.124;37.910;2023-01-30T11:53:40;97241.22;;;-1.86;86.53
67517;BME280;54359;59.124;37.910;2023-01-30T11:56:52;97199.78;;;-2.09;85.89
67517;BME280;54359;59.124;37.910;2023-01-30T11:59:43;97229.44;;;-1.90;86.22
67517;BME280;54359;59.124;37.910;2023-01-30T12:02:31;97200.66;;;-2.07;86.22
67517;BME280;54359;59.124;37.910;2023-01-30T12:05:52;97212.81;;;-1.77;86.06
67517;BME280;54359;59.124;37.910;2023-01-30T12:08:50;97219.59;;;-1.74;85.87
67517;BME280;54359;59.124;37.910;2023-01-30T12:11:43;97216.22;;;-1.73;86.58
67517;BME280;54359;59.124;37.910;2023-01-30T12:17:20;97217.09;;;-1.71;86.28
67517;BME280;54359;59.124;37.910;2023-01-30T12:23:14;97194.41;;;-1.74;85.71
67517;BME280;54359;59.124;37.910;2023-01-30T12:26:20;97190.16;;;-1.77;86.34
67517;BME280;54359;59.124;37.910;2023-01-30T12:31:43;97171.66;;;-1.79;86.15
67517;BME280;54359;59.124;37.910;2023-01-30T12:34:11;97182.63;;;-1.75;86.20
67517;BME280;54359;59.124;37.910;2023-01-30T12:43:15;97170.88;;;-1.75;86.66
67517;BME280;54359;59.124;37.910;2023-01-30T12:54:44;97152.56;;;-1.66;86.03
67517;BME280;54359;59.124;37.910;2023-01-30T13:07:07;97148.31;;;-1.70;85.47
67517;BME280;54359;59.124;37.910;2023-01-30T13:19:49;97106.94;;;-1.88;86.07
67517;BME280;54359;59.124;37.910;2023-01-30T13:22:27;97119.66;;;-1.77;86.36
67517;BME280;54359;59.124;37.910;2023-01-30T13:25:18;97129.03;;;-1.68;86.34
67517;BME280;54359;59.124;37.910;2023-01-30T13:28:20;97136.53;;;-1.71;86.60
67517;BME280;54359;59.124;37.910;2023-01-30T13:30:56;97101.91;;;-1.88;86.17
67517;BME280;54359;59.124;37.910;2023-01-30T13:33:40;97101.84;;;-1.92;85.94
67517;BME280;54359;59.124;37.910;2023-01-30T13:36:32;97122.25;;;-1.71;85.76
67517;BME280;54359;59.124;37.910;2023-01-30T13:42:41;97109.66;;;-1.72;86.11
67517;BME280;54359;59.124;37.910;2023-01-30T13:45:40;97102.88;;;-1.78;86.29
67517;BME280;54359;59.124;37.910;2023-01-30T13:57:57;97113.97;;;-1.64;86.31
67517;BME280;54359;59.124;37.910;2023-01-30T14:00:57;97110.59;;;-1.63;86.77
67517;BME280;54359;59.124;37.910;2023-01-30T14:04:43;97107.22;;;-1.65;86.69
67517;BME280;54359;59.124;37.910;2023-01-30T14:07:38;97106.38;;;-1.65;86.22
67517;BME280;54359;59.124;37.910;2023-01-30T14:10:25;97095.44;;;-1.67;86.03
67517;BME280;54359;59.124;37.910;2023-01-30T14:13:18;97082.84;;;-1.67;86.49
67517;BME280;54359;59.124;37.910;2023-01-30T14:16:16;97093.84;;;-1.60;86.25
67517;BME280;54359;59.124;37.910;2023-01-30T14:18:54;97076.16;;;-1.68;87.00
67517;BME280;54359;59.124;37.910;2023-01-30T14:21:21;97059.31;;;-1.72;86.56
67517;BME280;54359;59.124;37.910;2023-01-30T14:23:58;97083.84;;;-1.53;86.64
67517;BME280;54359;59.124;37.910;2023-01-30T14:27:02;97081.34;;;-1.53;86.23
67517;BME280;54359;59.124;37.910;2023-01-30T14:37:47;97061.25;;;-1.47;86.49
67517;BME280;54359;59.124;37.910;2023-01-30T14:45:51;97065.53;;;-1.41;86.39
67517;BME280;54359;59.124;37.910;2023-01-30T14:48:39;97051.16;;;-1.50;86.33
67517;BME280;54359;59.124;37.910;2023-01-30T14:57:44;97065.53;;;-1.41;86.35
67517;BME280;54359;59.124;37.910;2023-01-30T15:02:26;97059.63;;;-1.40;86.74
67517;BME280;54359;59.124;37.910;2023-01-30T15:05:14;97055.47;;;-1.39;86.67
67517;BME280;54359;59.124;37.910;2023-01-30T15:13:59;97050.38;;;-1.43;86.51
67517;BME280;54359;59.124;37.910;2023-01-30T15:17:11;96983.66;;;-1.82;86.43
67517;BME280;54359;59.124;37.910;2023-01-30T15:22:45;97025.03;;;-1.56;86.63
67517;BME280;54359;59.124;37.910;2023-01-30T15:25:28;97042.84;;;-1.41;86.63
67517;BME280;54359;59.124;37.910;2023-01-30T15:28:12;97044.53;;;-1.38;86.66
67517;BME280;54359;59.124;37.910;2023-01-30T15:33:49;97046.28;;;-1.33;86.92
67517;BME280;54359;59.124;37.910;2023-01-30T15:36:34;97004.97;;;-1.49;86.61
67517;BME280;54359;59.124;37.910;2023-01-30T15:39:14;97032.81;;;-1.35;87.05
67517;BME280;54359;59.124;37.910;2023-01-30T15:41:41;97026.03;;;-1.42;87.09
67517;BME280;54359;59.124;37.910;2023-01-30T15:44:20;97044.63;;;-1.31;86.87
67517;BME280;54359;59.124;37.910;2023-01-30T15:49:55;97021.06;;;-1.37;86.96
67517;BME280;54359;59.124;37.910;2023-01-30T15:52:36;97025.22;;;-1.39;86.68
67517;BME280;54359;59.124;37.910;2023-01-30T15:55:05;97045.47;;;-1.30;86.66
67517;BME280;54359;59.124;37.910;2023-01-30T15:57:37;97041.28;;;-1.28;86.98
67517;BME280;54359;59.124;37.910;2023-01-30T16:00:05;97024.50;;;-1.26;87.04
67517;BME280;54359;59.124;37.910;2023-01-30T16:02:42;97013.47;;;-1.39;86.73